createdAt,value
2023-03-05T00:00:25.130Z,16.90
2023-03-05T00:04:11.839Z,18.00
2023-03-05T00:07:53.934Z,20.92
2023-03-05T00:11:35.888Z,15.10
2023-03-05T00:15:17.657Z,15.82
2023-03-05T00:19:00.835Z,18.65
2023-03-05T00:22:42.766Z,16.48
2023-03-05T00:26:26.683Z,15.60
2023-03-05T00:30:09.266Z,16.75
2023-03-05T00:33:56.182Z,18.17
2023-03-05T00:37:38.069Z,17.85
2023-03-05T00:41:20.064Z,16.75
2023-03-05T00:45:01.914Z,23.60
2023-03-05T00:48:43.825Z,18.25
2023-03-05T00:52:25.634Z,18.05
2023-03-05T00:56:07.622Z,22.38
2023-03-05T00:59:49.340Z,19.38
2023-03-05T01:03:32.599Z,19.60
2023-03-05T01:07:14.363Z,22.25
2023-03-05T01:10:56.554Z,17.33
2023-03-05T01:14:38.260Z,19.42
2023-03-05T01:18:20.593Z,19.58
2023-03-05T01:22:02.381Z,25.52
2023-03-05T01:25:44.115Z,20.13
2023-03-05T01:29:25.952Z,19.40
2023-03-05T01:33:07.677Z,18.77
2023-03-05T01:36:50.509Z,23.85
2023-03-05T01:40:32.337Z,21.95
2023-03-05T01:44:26.409Z,21.63
2023-03-05T01:48:08.115Z,22.35
2023-03-05T01:52:17.931Z,19.27
2023-03-05T01:55:59.938Z,22.38
2023-03-05T01:59:44.636Z,18.30
2023-03-05T02:03:26.989Z,24.83
2023-03-05T02:07:09.568Z,22.90
2023-03-05T02:10:55.356Z,22.63
2023-03-05T02:14:37.803Z,23.55
2023-03-05T02:18:20.551Z,20.33
2023-03-05T02:22:02.310Z,20.30
2023-03-05T02:25:44.621Z,23.23
2023-03-05T02:29:29.286Z,25.42
2023-03-05T02:33:11.133Z,21.88
2023-03-05T02:36:55.625Z,19.30
2023-03-05T02:40:37.388Z,23.65
2023-03-05T02:44:19.218Z,21.50
2023-03-05T02:48:01.321Z,23.95
2023-03-05T02:51:43.164Z,22.75
2023-03-05T02:55:24.879Z,25.45
2023-03-05T02:59:07.018Z,20.23
2023-03-05T03:02:48.851Z,20.23
2023-03-05T03:06:30.592Z,22.88
2023-03-05T03:10:12.905Z,21.00
2023-03-05T03:13:54.755Z,21.55
2023-03-05T03:17:37.490Z,21.80
2023-03-05T03:21:25.788Z,21.02
2023-03-05T03:25:08.350Z,29.90
2023-03-05T03:28:50.756Z,21.57
2023-03-05T03:32:33.107Z,18.95
2023-03-05T03:36:14.970Z,22.58
2023-03-05T03:39:56.900Z,22.38
2023-03-05T03:43:38.747Z,19.67
2023-03-05T03:47:20.490Z,22.40
2023-03-05T03:51:05.472Z,20.65
2023-03-05T03:54:47.372Z,20.50
2023-03-05T03:58:29.364Z,20.08
2023-03-05T04:02:11.109Z,24.27
2023-03-05T04:05:52.844Z,22.80
2023-03-05T04:09:34.600Z,19.85
2023-03-05T04:13:16.301Z,21.98
2023-03-05T04:16:58.132Z,19.77
2023-03-05T04:20:39.908Z,20.42
2023-03-05T04:24:21.707Z,22.60
2023-03-05T04:28:03.476Z,25.92
2023-03-05T04:31:45.206Z,21.20
2023-03-05T04:35:27.066Z,25.13
2023-03-05T04:39:09.044Z,18.75
2023-03-05T04:42:50.765Z,27.92
2023-03-05T04:46:32.930Z,21.45
2023-03-05T04:50:14.921Z,20.10
2023-03-05T04:53:56.696Z,20.38
2023-03-05T04:57:39.041Z,20.73
2023-03-05T05:01:20.869Z,21.45
2023-03-05T05:05:02.642Z,22.10
2023-03-05T05:08:44.442Z,24.52
2023-03-05T05:12:30.583Z,22.88
2023-03-05T05:16:12.875Z,27.73
2023-03-05T05:19:54.824Z,25.13
2023-03-05T05:23:37.223Z,25.42
2023-03-05T05:27:18.962Z,24.92
2023-03-05T05:31:00.938Z,26.33
2023-03-05T05:34:42.686Z,27.38
2023-03-05T05:38:24.503Z,22.38
2023-03-05T05:42:06.505Z,23.58
2023-03-05T05:45:48.436Z,28.70
2023-03-05T05:49:30.242Z,31.55
2023-03-05T05:53:11.993Z,28.60
2023-03-05T05:56:54.908Z,27.42
2023-03-05T06:00:36.754Z,21.90
2023-03-05T06:04:18.478Z,25.30
2023-03-05T06:08:00.332Z,21.05
2023-03-05T06:11:42.096Z,24.25
2023-03-05T06:15:23.850Z,26.05
2023-03-05T06:19:06.051Z,23.60
2023-03-05T06:22:47.788Z,21.25
2023-03-05T06:26:29.526Z,24.00
2023-03-05T06:30:12.793Z,17.05
2023-03-05T06:33:56.352Z,15.82
2023-03-05T06:37:38.048Z,19.58
2023-03-05T06:41:22.292Z,15.32
2023-03-05T06:45:04.436Z,16.08
2023-03-05T06:48:47.016Z,13.73
2023-03-05T06:52:28.725Z,12.20
2023-03-05T06:56:11.209Z,11.82
2023-03-05T06:59:53.066Z,10.40
2023-03-05T07:03:36.406Z,10.63
2023-03-05T07:07:20.887Z,10.95
2023-03-05T07:11:03.322Z,11.85
2023-03-05T07:14:45.400Z,9.35
2023-03-05T07:18:27.189Z,8.73
2023-03-05T07:22:09.056Z,8.75
2023-03-05T07:25:50.774Z,11.27
2023-03-05T07:29:32.492Z,9.10
2023-03-05T07:33:14.188Z,10.77
2023-03-05T07:36:55.928Z,8.85
2023-03-05T07:40:37.777Z,6.80
2023-03-05T07:44:20.368Z,7.07
2023-03-05T07:48:02.069Z,6.47
2023-03-05T07:51:44.303Z,7.28
2023-03-05T07:55:26.033Z,6.50
2023-03-05T07:59:10.947Z,7.43
2023-03-05T08:02:52.703Z,6.30
2023-03-05T08:06:34.722Z,7.40
2023-03-05T08:10:16.620Z,8.35
2023-03-05T08:13:59.470Z,9.77
2023-03-05T08:17:41.743Z,6.97
2023-03-05T08:21:33.688Z,7.53
2023-03-05T08:25:15.594Z,7.20
2023-03-05T08:28:58.264Z,7.55
2023-03-05T08:32:40.232Z,7.10
2023-03-05T08:36:22.167Z,10.50
2023-03-05T08:40:05.183Z,11.60
2023-03-05T08:43:47.127Z,8.05
2023-03-05T08:47:29.023Z,7.00
2023-03-05T08:51:17.426Z,5.70
2023-03-05T08:54:59.135Z,6.43
2023-03-05T08:58:41.023Z,5.25
2023-03-05T09:02:23.089Z,8.07
2023-03-05T09:06:08.188Z,7.30
2023-03-05T09:09:49.920Z,6.20
2023-03-05T09:13:32.308Z,6.28
2023-03-05T09:17:14.026Z,6.10
2023-03-05T09:20:56.538Z,8.60
2023-03-05T09:24:39.007Z,9.33
2023-03-05T09:28:20.852Z,7.43
2023-03-05T09:32:02.756Z,10.43
2023-03-05T09:35:44.804Z,7.38
2023-03-05T09:39:26.929Z,10.07
2023-03-05T09:43:19.581Z,7.60
2023-03-05T09:47:06.810Z,9.33
2023-03-05T09:50:59.004Z,7.63
2023-03-05T09:54:44.616Z,5.60
2023-03-05T09:58:37.082Z,6.47
2023-03-05T10:02:32.648Z,5.35
2023-03-05T10:06:32.555Z,8.25
2023-03-05T10:10:22.399Z,9.18
2023-03-05T10:14:04.792Z,6.55
2023-03-05T10:18:14.712Z,9.43
2023-03-05T10:22:08.251Z,9.15
2023-03-05T10:30:02.961Z,8.60
2023-03-05T10:34:02.764Z,6.55
2023-03-05T10:37:58.073Z,6.88
2023-03-05T10:41:39.764Z,7.00
2023-03-05T10:45:28.985Z,7.97
2023-03-05T10:49:27.468Z,6.50
2023-03-05T10:53:33.722Z,7.65
2023-03-05T10:57:18.494Z,8.77
2023-03-05T11:01:04.793Z,6.47
2023-03-05T11:04:49.391Z,6.60
2023-03-05T11:08:33.835Z,11.50
2023-03-05T11:12:22.025Z,6.28
2023-03-05T11:16:06.682Z,8.80
2023-03-05T11:19:48.529Z,7.90
2023-03-05T11:23:30.312Z,8.63
2023-03-05T11:27:51.472Z,5.97
2023-03-05T11:31:34.232Z,7.15
2023-03-05T11:35:34.215Z,7.45
2023-03-05T11:39:18.064Z,10.55
2023-03-05T11:43:02.671Z,8.13
2023-03-05T11:46:54.042Z,5.72
2023-03-05T11:50:37.784Z,6.20
2023-03-05T11:54:26.988Z,9.55
2023-03-05T11:58:23.898Z,5.50
2023-03-05T12:02:19.392Z,6.70
2023-03-05T12:06:36.770Z,6.43
2023-03-05T12:10:24.360Z,7.55
2023-03-05T12:14:41.353Z,7.75
2023-03-05T12:18:56.759Z,9.23
2023-03-05T12:22:40.960Z,7.20
2023-03-05T12:26:53.495Z,10.32
2023-03-05T12:30:35.199Z,7.00
2023-03-05T12:34:35.514Z,7.10
2023-03-05T12:38:32.960Z,6.30
2023-03-05T12:42:30.132Z,9.40
2023-03-05T12:46:32.975Z,8.18
2023-03-05T12:50:27.215Z,10.87
2023-03-05T12:54:35.926Z,8.27
2023-03-05T12:58:32.338Z,9.52
2023-03-05T13:02:23.399Z,7.85
2023-03-05T13:06:06.809Z,9.05
2023-03-05T13:13:42.883Z,9.30
2023-03-05T13:18:00.371Z,7.05
2023-03-05T13:21:42.217Z,9.73
2023-03-05T13:25:24.000Z,12.50
2023-03-05T13:29:28.268Z,14.07
2023-03-05T13:33:18.357Z,11.63
2023-03-05T13:37:05.085Z,11.07
2023-03-05T13:41:06.919Z,8.98
2023-03-05T13:45:04.387Z,11.75
2023-03-05T13:48:46.132Z,12.32
2023-03-05T13:52:32.042Z,12.68
2023-03-05T13:56:17.098Z,7.53
2023-03-05T13:59:59.790Z,8.75
2023-03-05T14:03:41.717Z,9.02
2023-03-05T14:07:41.460Z,8.95
2023-03-05T14:11:23.253Z,9.23
2023-03-05T14:15:23.926Z,10.63
2023-03-05T14:19:07.301Z,8.40
2023-03-05T14:26:37.533Z,13.07
2023-03-05T14:30:21.671Z,9.02
2023-03-05T14:34:06.669Z,10.23
2023-03-05T14:37:49.708Z,13.57
2023-03-05T14:41:41.230Z,12.10
2023-03-05T14:45:34.626Z,11.55
2023-03-05T14:49:17.284Z,10.98
2023-03-05T14:53:01.868Z,13.93
2023-03-05T14:56:43.757Z,12.88
2023-03-05T15:00:28.064Z,13.77
2023-03-05T15:04:09.772Z,12.75
2023-03-05T15:07:52.224Z,10.60
2023-03-05T15:11:34.669Z,11.33
2023-03-05T15:15:18.025Z,10.47
2023-03-05T15:22:41.384Z,10.68
2023-03-05T15:26:23.123Z,9.98
2023-03-05T15:30:07.183Z,9.15
2023-03-05T15:33:48.903Z,8.73
2023-03-05T15:37:31.024Z,9.88
2023-03-05T15:41:13.207Z,10.88
2023-03-05T15:44:54.939Z,8.98
2023-03-05T15:48:36.729Z,10.77
2023-03-05T15:52:18.625Z,11.68
2023-03-05T15:56:00.372Z,11.50
2023-03-05T15:59:42.091Z,9.63
2023-03-05T16:03:23.885Z,10.77
2023-03-05T16:07:07.096Z,13.13
2023-03-05T16:10:48.875Z,11.32
2023-03-05T16:14:32.120Z,12.40
2023-03-05T16:18:16.513Z,13.55
2023-03-05T16:21:58.215Z,16.75
2023-03-05T16:25:40.242Z,14.68
2023-03-05T16:29:21.995Z,18.17
2023-03-05T16:33:03.998Z,27.38
2023-03-05T16:36:52.593Z,16.75
2023-03-05T16:41:05.651Z,13.65
2023-03-05T16:44:43.834Z,15.88
2023-03-05T16:48:25.650Z,17.45
2023-03-05T16:52:18.406Z,18.30
2023-03-05T16:56:06.555Z,17.65
2023-03-05T16:59:48.434Z,14.38
2023-03-05T17:03:30.458Z,17.02
2023-03-05T17:07:12.302Z,17.90
2023-03-05T17:10:54.146Z,17.58
2023-03-05T17:14:35.898Z,16.42
2023-03-05T17:18:17.616Z,22.90
2023-03-05T17:21:59.335Z,23.15
2023-03-05T17:25:41.228Z,24.15
2023-03-05T17:29:23.352Z,24.08
2023-03-05T17:33:05.868Z,24.30
2023-03-05T17:36:50.560Z,16.83
2023-03-05T17:40:32.452Z,20.08
2023-03-05T17:44:14.382Z,20.52
2023-03-05T17:47:57.739Z,17.45
2023-03-05T17:51:40.920Z,14.98
2023-03-05T17:55:25.268Z,14.23
2023-03-05T17:59:07.618Z,15.98
2023-03-05T18:02:50.756Z,18.63
2023-03-05T18:06:33.543Z,13.73
2023-03-05T18:10:23.586Z,18.85
2023-03-05T18:14:08.884Z,18.42
2023-03-05T18:17:52.215Z,17.13
2023-03-05T18:21:34.200Z,27.38
2023-03-05T18:25:16.250Z,18.77
2023-03-05T18:29:00.217Z,21.13
2023-03-05T18:32:42.519Z,19.75
2023-03-05T18:36:25.267Z,19.38
2023-03-05T18:40:19.532Z,20.45
2023-03-05T18:44:01.925Z,20.80
2023-03-05T18:47:43.841Z,26.70
2023-03-05T18:51:26.870Z,23.92
2023-03-05T18:55:13.037Z,29.05
2023-03-05T18:58:54.851Z,23.67
2023-03-05T19:02:36.692Z,24.17
2023-03-05T19:06:18.535Z,22.10
2023-03-05T19:10:07.301Z,22.30
2023-03-05T19:13:50.656Z,19.58
2023-03-05T19:17:32.867Z,27.73
2023-03-05T19:21:14.671Z,23.05
2023-03-05T19:24:56.466Z,20.42
2023-03-05T19:28:38.282Z,22.23
2023-03-05T19:32:21.955Z,22.80
2023-03-05T19:36:08.622Z,22.63
2023-03-05T19:39:50.840Z,28.33
2023-03-05T19:43:32.882Z,28.88
2023-03-05T19:47:14.872Z,30.27
2023-03-05T19:50:56.664Z,32.58
2023-03-05T19:54:38.409Z,23.90
2023-03-05T19:58:20.232Z,23.38
2023-03-05T20:02:02.079Z,21.30
2023-03-05T20:05:43.840Z,27.08
2023-03-05T20:09:25.726Z,24.25
2023-03-05T20:13:07.423Z,19.83
2023-03-05T20:16:49.230Z,19.38
2023-03-05T20:20:31.028Z,23.38
2023-03-05T20:24:15.386Z,19.73
2023-03-05T20:27:57.075Z,20.05
2023-03-05T20:31:39.402Z,17.95
2023-03-05T20:35:21.537Z,22.58
2023-03-05T20:39:05.139Z,17.55
2023-03-05T20:42:47.018Z,17.30
2023-03-05T20:46:31.806Z,19.38
2023-03-05T20:50:14.873Z,17.00
2023-03-05T20:53:59.341Z,18.00
2023-03-05T20:57:42.594Z,17.77
2023-03-05T21:01:25.626Z,18.20
2023-03-05T21:05:07.661Z,23.15
2023-03-05T21:08:49.797Z,15.05
2023-03-05T21:12:34.726Z,17.95
2023-03-05T21:16:24.381Z,15.45
2023-03-05T21:20:07.523Z,17.50
2023-03-05T21:23:49.371Z,20.48
2023-03-05T21:27:31.073Z,18.52
2023-03-05T21:31:19.772Z,16.85
2023-03-05T21:35:01.650Z,14.30
2023-03-05T21:38:43.376Z,13.85
2023-03-05T21:42:25.143Z,13.57
2023-03-05T21:46:07.058Z,12.70
2023-03-05T21:49:49.035Z,14.88
2023-03-05T21:53:30.789Z,20.10
2023-03-05T21:57:12.801Z,16.33
2023-03-05T22:00:54.680Z,23.23
2023-03-05T22:04:36.494Z,22.95
2023-03-05T22:08:18.199Z,25.00
2023-03-05T22:11:59.996Z,21.92
2023-03-05T22:15:44.221Z,19.52
2023-03-05T22:19:26.045Z,19.80
2023-03-05T22:23:08.036Z,15.00
2023-03-05T22:26:49.758Z,18.30
2023-03-05T22:30:32.200Z,14.27
2023-03-05T22:34:20.107Z,16.77
2023-03-05T22:38:01.991Z,15.80
2023-03-05T22:41:46.294Z,14.68
2023-03-05T22:45:29.267Z,15.40
2023-03-05T22:49:10.980Z,13.88
2023-03-05T22:52:52.796Z,14.48
2023-03-05T22:56:34.706Z,15.65
2023-03-05T23:00:23.687Z,15.77
2023-03-05T23:04:18.573Z,13.80
2023-03-05T23:08:00.696Z,15.43
2023-03-05T23:11:42.391Z,12.60
2023-03-05T23:15:35.857Z,12.73
2023-03-05T23:19:17.596Z,15.43
2023-03-05T23:23:00.270Z,14.15
2023-03-05T23:26:42.299Z,14.10
2023-03-05T23:30:26.157Z,13.70
2023-03-05T23:34:07.949Z,17.13
2023-03-05T23:37:49.943Z,12.93
2023-03-05T23:41:31.661Z,12.45
2023-03-05T23:45:15.060Z,12.77
2023-03-05T23:52:38.486Z,12.98
2023-03-05T23:56:20.193Z,11.00
